Time;durP1;ratioP1;P1;durP2;ratioP2;P2;SDS_P1;SDS_P2;PMS_P1;PMS_P2;Temp;Humidity;BMP_temperature;BMP_pressure;BME280_temperature;BME280_humidity;BME280_pressure;Samples;Min_cycle;Max_cycle;Signal;HPM_P1;HPM_P2
2023/02/20 00:00:04;;;;;;;6.47;3.25;;;;;;;4.72;66.51;98524.03;10469040;28;20500;-76
2023/02/20 00:05:45;;;;;;;5.68;3.92;;;;;;;4.75;66.17;98512.66;10485957;28;20465;-77
2023/02/20 00:11:07;;;;;;;6.93;4.00;;;;;;;4.84;66.31;98512.19;10468774;28;20037;-76
2023/02/20 00:16:28;;;;;;;9.65;4.80;;;;;;;4.86;65.66;98501.34;10468697;28;20045;-76
2023/02/20 00:21:51;;;;;;;8.50;4.38;;;;;;;4.89;65.96;98489.19;10468473;28;20037;-75
2023/02/20 00:27:12;;;;;;;8.55;4.72;;;;;;;4.92;65.92;98486.63;10482316;28;20466;-74
2023/02/20 00:32:33;;;;;;;9.45;5.03;;;;;;;4.94;65.72;98476.50;10468582;28;20036;-75
2023/02/20 00:37:54;;;;;;;8.52;4.88;;;;;;;4.95;65.20;98471.72;10457696;28;20040;-75
2023/02/20 00:43:15;;;;;;;8.57;3.92;;;;;;;4.94;65.99;98461.94;10469628;28;20103;-74
2023/02/20 00:48:36;;;;;;;9.80;4.47;;;;;;;4.94;66.03;98468.22;10468087;28;20048;-76
2023/02/20 00:54:16;;;;;;;6.50;4.10;;;;;;;5.00;65.91;98481.91;10489754;28;20051;-76
2023/02/20 00:59:38;;;;;;;7.00;4.10;;;;;;;5.03;65.78;98486.38;10475200;28;20067;-76
2023/02/20 01:04:59;;;;;;;6.93;4.10;;;;;;;5.05;65.74;98481.03;10474570;28;20048;-76
2023/02/20 01:10:21;;;;;;;6.78;3.58;;;;;;;5.09;65.61;98475.91;10502572;28;20466;-76
2023/02/20 01:15:42;;;;;;;8.25;4.40;;;;;;;5.11;65.20;98470.56;10460684;28;20055;-76
2023/02/20 01:21:04;;;;;;;7.78;4.00;;;;;;;5.12;65.13;98449.94;10474375;28;20085;-76
2023/02/20 01:26:25;;;;;;;6.78;3.88;;;;;;;5.12;65.05;98449.94;10474272;28;20044;-76
2023/02/20 01:31:47;;;;;;;7.32;3.97;;;;;;;5.14;65.15;98463.97;10473850;28;20043;-76
2023/02/20 01:37:12;;;;;;;6.93;3.67;;;;;;;5.20;64.98;98450.72;10474348;28;20071;-76
2023/02/20 01:42:33;;;;;;;7.28;3.80;;;;;;;5.20;65.12;98445.16;10473692;28;20371;-77
2023/02/20 01:47:55;;;;;;;4.85;3.15;;;;;;;5.23;66.42;98429.53;10473334;28;20040;-76
2023/02/20 01:53:19;;;;;;;4.10;2.72;;;;;;;5.22;67.79;98412.19;10487115;28;20041;-76
2023/02/20 01:58:42;;;;;;;3.55;2.38;;;;;;;5.24;68.29;98398.53;10486728;28;20105;-76
2023/02/20 02:04:04;;;;;;;4.93;2.50;;;;;;;5.30;68.74;98398.38;10459017;28;20067;-76
2023/02/20 02:09:36;;;;;;;2.67;2.00;;;;;;;5.31;68.82;98394.34;10458628;28;20044;-77
2023/02/20 02:14:57;;;;;;;4.68;2.25;;;;;;;5.34;69.50;98388.44;10472506;28;20501;-75
2023/02/20 02:20:49;;;;;;;4.10;2.45;;;;;;;5.35;69.12;98376.09;10472046;28;20052;-75
2023/02/20 02:26:48;;;;;;;4.13;2.33;;;;;;;5.36;69.13;98369.25;10499315;28;20044;-77
2023/02/20 02:32:27;;;;;;;3.95;2.42;;;;;;;5.39;69.40;98372.97;10499191;28;20045;-76
2023/02/20 02:38:01;;;;;;;4.57;2.60;;;;;;;5.43;69.27;98351.97;10499073;28;20057;-77
2023/02/20 02:43:34;;;;;;;4.25;2.40;;;;;;;5.46;70.54;98344.59;10484925;28;20402;-77
2023/02/20 02:49:18;;;;;;;4.03;2.47;;;;;;;5.57;71.40;98343.53;10471355;28;20508;-77
2023/02/20 02:54:39;;;;;;;5.07;2.73;;;;;;;5.65;70.81;98338.75;10473552;28;20109;-77
2023/02/20 03:00:18;;;;;;;6.00;3.55;;;;;;;5.72;72.23;98344.34;10470281;28;20441;-77
2023/02/20 03:05:46;;;;;;;6.93;2.83;;;;;;;5.78;72.55;98352.47;10497905;28;20043;-75
2023/02/20 03:11:07;;;;;;;3.83;2.40;;;;;;;5.83;72.28;98359.91;10484105;28;20048;-75
2023/02/20 03:16:40;;;;;;;4.38;2.28;;;;;;;5.88;72.99;98344.38;10497182;28;20040;-77
2023/02/20 03:22:02;;;;;;;3.25;2.47;;;;;;;5.91;72.96;98338.53;10470696;28;20040;-77
2023/02/20 03:27:54;;;;;;;6.63;2.85;;;;;;;5.89;74.00;98313.38;10469556;28;20045;-77
2023/02/20 03:44:59;;;;;;;5.18;2.85;;;;;;;5.91;74.71;98315.63;10474242;28;20060;-77
2023/02/20 03:56:02;;;;;;;4.93;2.97;;;;;;;5.92;75.84;98322.66;10460386;28;20028;-75
2023/02/20 04:01:24;;;;;;;4.90;3.03;;;;;;;5.92;75.71;98334.47;10447192;28;20044;-75
2023/02/20 04:06:46;;;;;;;5.15;3.03;;;;;;;5.95;75.54;98329.84;10452583;28;20064;-77
2023/02/20 04:12:13;;;;;;;5.03;3.35;;;;;;;5.93;75.23;98319.31;10433238;28;20429;-77
2023/02/20 04:17:44;;;;;;;6.32;3.53;;;;;;;5.83;76.02;98321.13;10434028;28;20479;-75
2023/02/20 04:23:16;;;;;;;5.15;3.25;;;;;;;5.79;76.48;98308.91;10434431;28;20095;-77
2023/02/20 04:28:37;;;;;;;6.32;3.03;;;;;;;5.80;77.41;98310.41;10465839;28;20047;-77
2023/02/20 04:34:00;;;;;;;5.93;3.53;;;;;;;5.86;77.72;98317.25;10455691;28;20497;-77
2023/02/20 04:39:21;;;;;;;5.63;3.53;;;;;;;5.94;77.13;98306.94;10454287;28;20126;-77
2023/02/20 04:44:43;;;;;;;7.85;3.78;;;;;;;5.99;78.20;98311.59;10461925;28;20049;-75
2023/02/20 04:50:05;;;;;;;6.53;3.28;;;;;;;6.03;78.00;98311.22;10447403;28;20044;-77
2023/02/20 04:55:27;;;;;;;6.68;3.13;;;;;;;5.86;78.35;98302.66;10434472;28;20375;-77
2023/02/20 05:00:53;;;;;;;5.18;3.17;;;;;;;5.69;78.08;98298.38;10422725;28;20041;-77
2023/02/20 05:06:14;;;;;;;5.10;3.40;;;;;;;5.51;78.49;98296.63;10433448;28;20087;-76
2023/02/20 05:11:35;;;;;;;7.57;4.15;;;;;;;5.40;79.24;98302.44;10419802;28;20406;-77
2023/02/20 05:16:56;;;;;;;6.32;3.95;;;;;;;5.33;79.61;98308.72;10450328;28;20394;-77
2023/02/20 05:22:20;;;;;;;5.97;3.85;;;;;;;5.25;79.60;98314.22;10433408;28;20102;-75
2023/02/20 05:27:41;;;;;;;4.75;3.13;;;;;;;5.18;79.86;98314.91;10436521;28;20044;-75
2023/02/20 05:33:03;;;;;;;6.63;3.20;;;;;;;5.18;80.13;98314.91;10442084;28;20040;-76
2023/02/20 05:38:24;;;;;;;8.38;3.95;;;;;;;5.38;80.72;98316.84;10449242;28;20514;-77
2023/02/20 05:43:45;;;;;;;5.25;3.35;;;;;;;5.55;79.79;98319.16;10439536;28;20059;-77
2023/02/20 05:49:06;;;;;;;6.18;3.65;;;;;;;5.69;79.65;98322.53;10449521;28;20032;-77
2023/02/20 05:54:28;;;;;;;5.47;3.22;;;;;;;5.70;79.80;98329.56;10443691;28;20483;-77
2023/02/20 05:59:49;;;;;;;7.97;4.22;;;;;;;5.75;79.88;98328.66;10441480;28;20044;-77
2023/02/20 06:05:11;;;;;;;5.85;3.17;;;;;;;5.85;79.85;98328.88;10451990;28;20065;-78
2023/02/20 06:10:32;;;;;;;7.28;3.22;;;;;;;5.92;79.95;98328.19;10449615;28;20101;-77
2023/02/20 06:15:53;;;;;;;6.45;4.45;;;;;;;5.95;80.41;98333.38;10434718;28;20044;-77
2023/02/20 06:21:14;;;;;;;8.25;3.95;;;;;;;5.98;80.10;98321.19;10455465;28;20041;-77
2023/02/20 06:26:39;;;;;;;7.72;4.85;;;;;;;6.03;79.62;98308.44;10449194;28;20032;-77
2023/02/20 06:32:00;;;;;;;6.32;4.38;;;;;;;6.08;79.55;98307.56;10447211;28;20397;-78
2023/02/20 06:37:22;;;;;;;6.85;4.18;;;;;;;6.19;79.11;98326.59;10463184;28;20419;-78
2023/02/20 06:42:43;;;;;;;8.15;3.83;;;;;;;6.28;78.78;98317.75;10446685;28;20115;-77
2023/02/20 06:48:04;;;;;;;7.32;4.35;;;;;;;6.43;78.44;98317.03;10455150;28;20053;-77
2023/02/20 06:53:25;;;;;;;4.38;3.35;;;;;;;6.52;77.56;98312.97;10415754;28;20398;-79
2023/02/20 06:58:48;;;;;;;5.82;3.85;;;;;;;6.65;77.56;98309.25;10415942;28;20119;-77
2023/02/20 07:04:16;;;;;;;5.25;3.60;;;;;;;6.73;77.03;98301.69;10443172;28;20433;-78
2023/02/20 07:09:37;;;;;;;6.07;3.78;;;;;;;6.89;76.98;98303.16;10428943;28;20494;-78
2023/02/20 07:14:58;;;;;;;7.07;3.72;;;;;;;7.07;76.22;98302.03;10429111;28;20167;-78
2023/02/20 07:20:19;;;;;;;7.57;3.63;;;;;;;7.21;75.72;98293.47;10442690;28;20053;-79
2023/02/20 07:25:40;;;;;;;6.50;3.95;;;;;;;7.37;75.07;98306.75;10415057;28;20059;-77
2023/02/20 07:31:02;;;;;;;6.95;4.00;;;;;;;7.43;74.54;98303.78;10429219;28;20427;-77
2023/02/20 07:36:22;;;;;;;6.38;3.67;;;;;;;7.58;74.46;98291.88;10442304;28;20055;-78
2023/02/20 07:41:44;;;;;;;6.60;3.80;;;;;;;7.61;73.61;98299.81;10442166;28;20048;-76
2023/02/20 07:47:27;;;;;;;5.93;3.90;;;;;;;7.50;72.29;98300.25;10434301;28;20107;-77
2023/02/20 07:52:48;;;;;;;5.95;3.22;;;;;;;7.63;72.10;98299.28;10442330;28;20494;-78
2023/02/20 07:58:09;;;;;;;7.30;4.25;;;;;;;7.73;72.38;98283.50;10427923;28;20049;-79
2023/02/20 08:03:30;;;;;;;6.78;4.00;;;;;;;7.84;70.49;98285.84;10447684;28;20040;-78
2023/02/20 08:08:51;;;;;;;6.80;4.15;;;;;;;7.91;69.95;98271.16;10448205;28;20410;-77
2023/02/20 08:14:12;;;;;;;5.40;3.75;;;;;;;7.99;69.26;98265.53;10422171;28;20045;-78
2023/02/20 08:19:33;;;;;;;5.50;4.10;;;;;;;8.20;68.15;98254.88;10428297;28;20033;-78
2023/02/20 08:24:54;;;;;;;7.05;4.00;;;;;;;8.43;68.06;98257.50;10453774;28;20036;-78
2023/02/20 08:30:24;;;;;;;7.85;4.15;;;;;;;8.62;67.33;98259.75;10476068;28;20470;-78
2023/02/20 08:35:47;;;;;;;5.68;3.80;;;;;;;8.70;66.80;98237.44;10477141;28;20500;-78
2023/02/20 08:41:16;;;;;;;7.75;4.10;;;;;;;8.77;66.30;98226.19;10434960;28;20379;-78
2023/02/20 08:46:46;;;;;;;7.68;4.03;;;;;;;8.78;65.61;98222.13;10461939;28;20049;-78
2023/02/20 08:52:07;;;;;;;6.78;3.08;;;;;;;9.06;65.31;98217.38;10427845;28;20402;-77
2023/02/20 08:57:28;;;;;;;7.10;3.20;;;;;;;9.89;64.45;98214.84;10448145;28;20114;-75
2023/02/20 09:02:49;;;;;;;4.85;2.70;;;;;;;11.00;61.63;98200.22;10434932;28;20510;-75
2023/02/20 09:08:10;;;;;;;7.78;2.90;;;;;;;12.05;58.76;98181.03;10437249;28;20467;-76
2023/02/20 09:13:31;;;;;;;4.03;2.60;;;;;;;12.54;55.61;98199.06;10455100;28;20040;-75
2023/02/20 09:18:54;;;;;;;4.32;2.60;;;;;;;11.66;55.40;98180.41;10454437;28;20051;-76
2023/02/20 09:24:17;;;;;;;6.22;2.55;;;;;;;12.03;55.43;98178.09;10478301;28;20078;-75
2023/02/20 09:29:39;;;;;;;5.70;2.60;;;;;;;11.53;53.88;98190.00;10488522;28;20040;-76
2023/02/20 09:35:01;;;;;;;4.68;2.53;;;;;;;11.40;54.96;98198.88;10487956;28;20047;-76
2023/02/20 09:40:26;;;;;;;5.50;2.60;;;;;;;11.42;54.64;98208.13;10501522;28;20041;-75
2023/02/20 09:46:02;;;;;;;3.42;2.08;;;;;;;12.41;53.63;98207.25;10460537;28;20480;-76
2023/02/20 09:51:25;;;;;;;4.35;2.20;;;;;;;14.59;49.44;98186.03;10474718;28;20036;-75
2023/02/20 09:56:55;;;;;;;5.47;2.28;;;;;;;15.80;45.50;98204.03;10474083;28;20040;-76
2023/02/20 10:02:26;;;;;;;3.88;2.00;;;;;;;16.42;44.54;98170.03;10459940;28;20070;-76
2023/02/20 10:07:48;;;;;;;3.58;1.38;;;;;;;16.61;43.72;98168.88;10487014;28;20045;-76
2023/02/20 10:13:43;;;;;;;3.13;1.65;;;;;;;17.42;39.99;98155.22;10472288;28;20102;-74
2023/02/20 10:19:15;;;;;;;3.88;1.70;;;;;;;17.49;38.88;98159.06;10497550;28;20044;-77
2023/02/20 10:24:54;;;;;;;5.20;1.90;;;;;;;18.19;39.20;98141.06;10498448;28;20051;-78
2023/02/20 10:30:22;;;;;;;4.47;1.60;;;;;;;18.02;37.83;98129.06;10499573;28;20445;-77
2023/02/20 10:35:49;;;;;;;3.20;1.35;;;;;;;17.31;38.61;98108.13;10485886;28;20462;-75
2023/02/20 10:41:30;;;;;;;2.92;1.42;;;;;;;15.59;39.07;98107.25;10479407;28;20392;-76
2023/02/20 10:47:04;;;;;;;3.95;2.00;;;;;;;13.95;41.48;98084.59;10451857;28;20074;-77
2023/02/20 10:52:52;;;;;;;6.40;1.92;;;;;;;13.31;43.57;98082.84;10470265;28;20540;-77
2023/02/20 10:58:36;;;;;;;4.68;1.83;;;;;;;13.47;43.96;98060.69;10447043;28;20517;-76
2023/02/20 11:04:09;;;;;;;3.60;2.00;;;;;;;13.35;44.42;98066.28;10460197;28;20040;-74
2023/02/20 11:09:30;;;;;;;6.65;2.05;;;;;;;13.38;44.55;98093.09;10439426;28;20092;-75
2023/02/20 11:14:52;;;;;;;4.78;1.80;;;;;;;13.45;45.03;98078.13;10415864;28;20490;-76
2023/02/20 11:20:31;;;;;;;5.53;1.80;;;;;;;13.98;44.89;98075.69;10444758;28;20457;-76
2023/02/20 11:25:52;;;;;;;2.63;1.42;;;;;;;14.84;43.34;98066.56;10443689;28;20079;-76
2023/02/20 11:31:14;;;;;;;5.13;1.80;;;;;;;14.97;42.92;98053.94;10430087;28;20103;-76
2023/02/20 11:36:37;;;;;;;5.68;1.50;;;;;;;14.63;42.82;98035.88;10429511;28;20045;-75
2023/02/20 11:42:04;;;;;;;4.90;1.50;;;;;;;14.42;42.73;98012.25;10429275;28;20056;-75
2023/02/20 11:47:26;;;;;;;2.65;1.23;;;;;;;14.13;43.09;98015.50;10456334;28;20045;-76
2023/02/20 11:52:55;;;;;;;6.05;1.17;;;;;;;14.06;42.96;98018.56;10443173;28;20136;-76
2023/02/20 11:58:24;;;;;;;3.47;1.13;;;;;;;13.80;42.84;98018.50;10467903;28;20044;-76
2023/02/20 12:03:45;;;;;;;2.50;1.05;;;;;;;13.50;43.58;98031.41;10447287;28;20047;-76
2023/02/20 12:09:08;;;;;;;2.35;1.10;;;;;;;13.57;43.62;98005.22;10447891;28;20537;-77
2023/02/20 12:14:29;;;;;;;1.45;0.80;;;;;;;13.25;43.46;98001.19;10450290;28;20036;-78
2023/02/20 12:20:26;;;;;;;3.28;1.10;;;;;;;13.19;43.75;97986.78;10451260;28;20044;-78
2023/02/20 12:26:18;;;;;;;3.95;1.08;;;;;;;13.11;43.73;97966.66;10443529;28;20052;-78
2023/02/20 12:32:07;;;;;;;3.10;0.82;;;;;;;13.14;43.87;97954.97;10463423;28;20040;-78
2023/02/20 12:37:44;;;;;;;1.90;0.80;;;;;;;13.78;43.48;97969.94;10468552;28;20056;-78
2023/02/20 12:43:17;;;;;;;2.45;0.73;;;;;;;14.14;42.09;97960.09;10461718;28;20051;-77
2023/02/20 12:48:50;;;;;;;3.13;1.02;;;;;;;14.50;41.52;97967.06;10484300;28;20039;-78
2023/02/20 12:54:57;;;;;;;2.80;1.13;;;;;;;14.33;40.92;97949.28;10496297;28;20043;-78
2023/02/20 13:00:39;;;;;;;1.98;0.70;;;;;;;13.75;41.32;97933.34;10432199;28;20052;-78
2023/02/20 13:06:00;;;;;;;4.13;0.70;;;;;;;13.50;42.37;97936.06;10483553;28;20056;-78
2023/02/20 13:11:23;;;;;;;4.55;0.80;;;;;;;13.15;42.93;97919.25;10486097;28;20470;-78
2023/02/20 13:16:56;;;;;;;3.60;1.00;;;;;;;12.99;43.70;97913.41;10455621;28;20048;-78
2023/02/20 13:22:17;;;;;;;2.28;0.80;;;;;;;12.87;43.99;97915.47;10459089;28;20043;-78
2023/02/20 13:27:39;;;;;;;4.20;0.75;;;;;;;12.54;44.21;97876.31;10468378;28;20037;-77
2023/02/20 13:33:21;;;;;;;2.92;0.70;;;;;;;12.26;45.33;97881.63;10454660;28;20406;-78
2023/02/20 13:39:05;;;;;;;1.92;0.82;;;;;;;12.17;45.65;97870.53;10476250;28;20406;-77
2023/02/20 13:44:35;;;;;;;2.17;0.80;;;;;;;12.15;46.20;97885.09;10503361;28;20064;-78
2023/02/20 13:49:57;;;;;;;4.38;0.80;;;;;;;12.11;46.29;97904.44;10502532;28;20294;-78
2023/02/20 13:55:23;;;;;;;4.53;0.70;;;;;;;11.97;46.48;97879.09;10488206;28;20041;-78
2023/02/20 14:00:51;;;;;;;3.97;1.10;;;;;;;11.90;46.98;97894.03;10475166;28;20468;-77
2023/02/20 14:06:16;;;;;;;4.45;0.90;;;;;;;11.81;47.44;97875.25;10502059;28;20044;-77
2023/02/20 14:11:40;;;;;;;3.78;0.60;;;;;;;11.70;47.98;97867.50;10488635;28;20098;-78
2023/02/20 14:17:12;;;;;;;4.65;1.40;;;;;;;11.67;48.23;97840.75;10459858;28;20039;-77
2023/02/20 14:22:34;;;;;;;2.50;0.90;;;;;;;11.57;48.32;97838.00;10432879;28;20048;-76
2023/02/20 14:28:13;;;;;;;7.35;1.13;;;;;;;11.55;49.28;97829.50;10431918;28;20052;-77
2023/02/20 14:33:34;;;;;;;4.35;0.77;;;;;;;11.44;49.05;97807.81;10445175;28;20132;-77
2023/02/20 14:39:29;;;;;;;4.65;0.93;;;;;;;11.36;49.21;97815.66;10432282;28;20112;-77
2023/02/20 14:45:01;;;;;;;2.75;0.80;;;;;;;11.37;49.39;97826.25;10450386;28;20106;-77
2023/02/20 14:50:28;;;;;;;2.15;0.82;;;;;;;11.37;49.39;97820.66;10446226;28;20051;-79
2023/02/20 14:55:49;;;;;;;3.05;0.60;;;;;;;11.44;49.44;97802.22;10459260;28;20052;-77
2023/02/20 15:01:15;;;;;;;2.55;0.50;;;;;;;11.49;49.11;97787.19;10444661;28;20044;-77
2023/02/20 15:06:37;;;;;;;3.22;0.70;;;;;;;11.49;49.48;97780.88;10445162;28;20467;-77
2023/02/20 15:11:58;;;;;;;3.95;0.80;;;;;;;11.47;49.62;97778.66;10445190;28;20044;-77
2023/02/20 15:17:22;;;;;;;4.43;0.80;;;;;;;11.46;49.65;97783.53;10458981;28;20045;-77
2023/02/20 15:22:43;;;;;;;3.72;1.10;;;;;;;11.45;49.64;97789.72;10444016;28;20041;-77
2023/02/20 15:28:17;;;;;;;3.63;0.70;;;;;;;11.44;49.48;97779.88;10472735;28;20044;-77
2023/02/20 15:33:48;;;;;;;1.48;0.50;;;;;;;11.44;49.19;97779.88;10498476;28;20068;-77
2023/02/20 15:39:10;;;;;;;2.70;0.65;;;;;;;11.41;49.30;97761.50;10470368;28;20040;-77
2023/02/20 15:44:31;;;;;;;1.98;0.50;;;;;;;11.31;49.15;97764.38;10483587;28;20394;-78
2023/02/20 15:49:52;;;;;;;6.45;0.50;;;;;;;11.29;48.80;97749.53;10483962;28;20036;-78
2023/02/20 15:55:15;;;;;;;2.78;0.50;;;;;;;11.36;48.50;97735.34;10498739;28;20459;-78
2023/02/20 16:00:37;;;;;;;1.92;0.55;;;;;;;11.35;48.10;97745.06;10484767;28;20409;-77
2023/02/20 16:05:58;;;;;;;2.30;0.50;;;;;;;11.28;48.28;97729.25;10497886;28;20089;-78
2023/02/20 16:11:20;;;;;;;2.05;0.50;;;;;;;11.17;48.15;97736.25;10483237;28;20048;-78
2023/02/20 16:16:45;;;;;;;1.33;0.50;;;;;;;11.08;48.11;97759.38;10455972;28;20048;-77
2023/02/20 16:22:08;;;;;;;3.72;0.80;;;;;;;10.97;48.22;97751.69;10443833;28;20410;-78
2023/02/20 16:27:29;;;;;;;1.27;0.57;;;;;;;10.86;48.50;97763.50;10489544;28;20379;-78
2023/02/20 16:32:52;;;;;;;2.90;0.60;;;;;;;10.77;48.58;97772.69;10476951;28;20401;-77
2023/02/20 16:38:14;;;;;;;2.60;0.57;;;;;;;10.70;48.95;97776.38;10448256;28;20041;-78
2023/02/20 16:43:35;;;;;;;3.55;1.10;;;;;;;10.59;49.19;97774.97;10447768;28;20052;-78
2023/02/20 16:48:56;;;;;;;2.45;0.95;;;;;;;10.48;49.40;97770.75;10435136;28;20041;-79
2023/02/20 16:54:17;;;;;;;3.80;1.10;;;;;;;10.41;49.57;97784.88;10449456;28;20045;-77
2023/02/20 16:59:38;;;;;;;2.90;1.00;;;;;;;10.35;49.85;97784.50;10434535;28;20094;-77
2023/02/20 17:04:59;;;;;;;2.22;1.00;;;;;;;10.22;50.33;97782.91;10453079;28;20051;-76
2023/02/20 17:10:20;;;;;;;2.10;0.90;;;;;;;10.19;50.23;97792.44;10447357;28;20041;-76
2023/02/20 17:15:43;;;;;;;3.55;1.10;;;;;;;10.14;50.44;97799.06;10447401;28;20045;-75
2023/02/20 17:21:04;;;;;;;3.60;1.10;;;;;;;10.12;50.47;97801.69;10447524;28;20441;-75
2023/02/20 17:26:27;;;;;;;2.95;0.80;;;;;;;10.04;50.89;97802.59;10461153;28;20052;-78
2023/02/20 17:31:48;;;;;;;2.78;0.90;;;;;;;9.98;50.75;97796.59;10447345;28;20041;-76
2023/02/20 17:37:10;;;;;;;5.75;1.10;;;;;;;9.92;51.26;97801.00;10432308;28;20395;-75
2023/02/20 17:42:30;;;;;;;2.35;0.90;;;;;;;9.91;51.13;97821.84;10446486;28;20041;-77
2023/02/20 17:47:51;;;;;;;1.90;0.70;;;;;;;9.91;51.32;97811.41;10432200;28;20055;-77
2023/02/20 17:53:13;;;;;;;5.80;1.10;;;;;;;10.08;51.46;97815.38;10446314;28;20041;-78
2023/02/20 17:58:35;;;;;;;5.68;1.10;;;;;;;10.26;50.94;97811.09;10438920;28;20037;-78
2023/02/20 18:03:56;;;;;;;3.90;1.17;;;;;;;10.33;51.11;97810.19;10454550;28;20094;-78
2023/02/20 18:09:17;;;;;;;5.13;1.05;;;;;;;10.44;51.27;97809.56;10419096;28;20075;-78
2023/02/20 18:14:38;;;;;;;2.15;0.85;;;;;;;10.52;50.91;97804.53;10432350;28;20037;-77
2023/02/20 18:19:58;;;;;;;5.90;0.93;;;;;;;10.56;50.93;97804.81;10499288;28;20460;-77
2023/02/20 18:25:20;;;;;;;2.95;0.90;;;;;;;10.60;50.87;97805.06;10500429;28;20052;-77
2023/02/20 18:30:57;;;;;;;4.68;1.40;;;;;;;10.54;51.12;97801.88;10476989;28;20036;-78
2023/02/20 18:36:19;;;;;;;2.92;0.93;;;;;;;10.44;51.03;97781.66;10472495;28;20041;-76
2023/02/20 18:41:40;;;;;;;3.53;1.30;;;;;;;10.29;51.42;97793.16;10459053;28;20052;-77
2023/02/20 18:47:04;;;;;;;3.13;1.17;;;;;;;10.13;51.94;97781.56;10471884;28;20060;-77
2023/02/20 18:52:25;;;;;;;3.92;1.02;;;;;;;9.95;51.75;97797.78;10499728;28;20067;-76
2023/02/20 18:57:47;;;;;;;3.35;0.90;;;;;;;9.82;52.49;97792.66;10471852;28;20509;-77
2023/02/20 19:03:08;;;;;;;4.07;1.08;;;;;;;9.70;52.75;97800.16;10472200;28;20040;-78
2023/02/20 19:08:28;;;;;;;2.85;0.70;;;;;;;9.59;53.01;97797.97;10472457;28;20466;-78
2023/02/20 19:13:51;;;;;;;3.83;1.00;;;;;;;9.54;53.11;97810.84;10472098;28;20478;-78
2023/02/20 19:19:17;;;;;;;5.20;1.05;;;;;;;9.53;54.09;97814.97;10471145;28;20044;-78
2023/02/20 19:24:44;;;;;;;5.38;1.00;;;;;;;9.67;53.85;97812.50;10485561;28;20041;-77
2023/02/20 19:30:05;;;;;;;4.05;1.08;;;;;;;9.75;53.71;97821.44;10456064;28;20048;-77
2023/02/20 19:35:26;;;;;;;3.30;1.17;;;;;;;9.77;53.76;97818.06;10469835;28;20398;-77
2023/02/20 19:40:48;;;;;;;2.72;1.15;;;;;;;9.71;53.93;97819.06;10483496;28;20482;-77
2023/02/20 19:46:22;;;;;;;3.25;0.95;;;;;;;9.70;54.20;97825.97;10469560;28;20044;-77
2023/02/20 19:51:47;;;;;;;3.13;1.13;;;;;;;9.66;54.28;97825.69;10469286;28;20098;-77
2023/02/20 19:57:08;;;;;;;4.22;1.35;;;;;;;9.59;54.84;97823.78;10469335;28;20101;-78
2023/02/20 20:02:29;;;;;;;6.57;1.30;;;;;;;9.58;54.50;97816.75;10469706;28;20044;-78
2023/02/20 20:07:51;;;;;;;4.53;1.27;;;;;;;9.61;54.87;97812.03;10483525;28;20098;-78
2023/02/20 20:13:12;;;;;;;4.47;1.30;;;;;;;9.55;54.79;97820.69;10473211;28;20051;-78
2023/02/20 20:18:33;;;;;;;4.65;1.30;;;;;;;9.54;55.10;97818.50;10469167;28;20109;-78
2023/02/20 20:23:55;;;;;;;5.57;1.52;;;;;;;9.51;55.02;97819.66;10483068;28;20044;-79
2023/02/20 20:29:15;;;;;;;4.00;1.40;;;;;;;9.43;55.30;97811.44;10468967;28;20053;-79
2023/02/20 20:34:39;;;;;;;3.08;0.98;;;;;;;9.45;55.37;97808.81;10482622;28;20524;-79
2023/02/20 20:40:00;;;;;;;7.70;1.40;;;;;;;9.51;55.40;97814.81;10469203;28;20040;-79
2023/02/20 20:45:22;;;;;;;4.63;1.63;;;;;;;9.52;55.96;97816.28;10482865;28;20278;-77
2023/02/20 20:50:43;;;;;;;3.63;1.10;;;;;;;9.56;55.84;97824.22;10482277;28;20044;-78
2023/02/20 20:56:05;;;;;;;3.22;1.00;;;;;;;9.60;55.58;97818.94;10482317;28;20093;-78
2023/02/20 21:01:28;;;;;;;4.40;1.30;;;;;;;9.64;55.80;97813.66;10468592;28;20044;-79
2023/02/20 21:06:56;;;;;;;4.80;1.50;;;;;;;9.64;55.80;97811.59;10470928;28;20047;-79
2023/02/20 21:12:19;;;;;;;3.05;1.20;;;;;;;9.64;55.62;97810.84;10460478;28;20045;-78
2023/02/20 21:17:41;;;;;;;5.43;1.55;;;;;;;9.62;56.09;97814.25;10433377;28;20051;-78
2023/02/20 21:23:03;;;;;;;5.63;1.10;;;;;;;9.63;56.06;97806.59;10444248;28;20044;-79
2023/02/20 21:28:24;;;;;;;4.75;1.77;;;;;;;9.60;56.19;97811.31;10466475;28;20051;-78
2023/02/20 21:33:52;;;;;;;5.15;1.52;;;;;;;9.60;56.26;97810.56;10456324;28;20037;-78
2023/02/20 21:39:13;;;;;;;7.72;1.88;;;;;;;9.58;56.34;97804.88;10439755;28;20432;-79
2023/02/20 21:44:37;;;;;;;3.35;1.48;;;;;;;9.49;56.24;97789.59;10419835;28;20502;-78
2023/02/20 21:49:58;;;;;;;;;;;;;;;9.30;56.85;97806.31;10446880;28;20063;-77
2023/02/20 21:55:19;;;;;;;6.55;1.73;;;;;;;9.03;57.40;97786.94;10460031;28;19967;-78
